sensor_id;sensor_type;location;lat;lon;timestamp;P1;durP1;ratioP1;P2;durP2;ratioP2
75035;SDS011;64247;51.540;5.854;2023-05-29T00:01:43;12.85;;;4.38;;
75035;SDS011;64247;51.540;5.854;2023-05-29T00:03:44;9.68;;;4.85;;
75035;SDS011;64247;51.540;5.854;2023-05-29T00:05:45;10.57;;;4.30;;
75035;SDS011;64247;51.540;5.854;2023-05-29T00:07:46;11.23;;;4.35;;
75035;SDS011;64247;51.540;5.854;2023-05-29T00:09:48;10.55;;;4.60;;
75035;SDS011;64247;51.540;5.854;2023-05-29T00:11:49;15.52;;;6.47;;
75035;SDS011;64247;51.540;5.854;2023-05-29T00:13:52;11.75;;;4.50;;
75035;SDS011;64247;51.540;5.854;2023-05-29T00:15:53;14.77;;;4.55;;
75035;SDS011;64247;51.540;5.854;2023-05-29T00:17:54;9.50;;;4.40;;
75035;SDS011;64247;51.540;5.854;2023-05-29T00:19:55;14.98;;;5.03;;
75035;SDS011;64247;51.540;5.854;2023-05-29T00:21:56;11.95;;;3.65;;
75035;SDS011;64247;51.540;5.854;2023-05-29T00:23:56;9.23;;;3.78;;
75035;SDS011;64247;51.540;5.854;2023-05-29T00:25:57;13.52;;;4.20;;
75035;SDS011;64247;51.540;5.854;2023-05-29T00:27:58;12.35;;;4.00;;
75035;SDS011;64247;51.540;5.854;2023-05-29T00:29:59;12.23;;;4.20;;
75035;SDS011;64247;51.540;5.854;2023-05-29T00:32:01;11.52;;;4.20;;
75035;SDS011;64247;51.540;5.854;2023-05-29T00:34:02;10.43;;;3.45;;
75035;SDS011;64247;51.540;5.854;2023-05-29T00:36:03;6.88;;;3.22;;
75035;SDS011;64247;51.540;5.854;2023-05-29T00:38:05;7.28;;;2.72;;
75035;SDS011;64247;51.540;5.854;2023-05-29T00:40:06;8.10;;;3.90;;
75035;SDS011;64247;51.540;5.854;2023-05-29T00:42:07;7.55;;;3.25;;
75035;SDS011;64247;51.540;5.854;2023-05-29T00:44:08;8.32;;;2.78;;
75035;SDS011;64247;51.540;5.854;2023-05-29T00:46:09;8.25;;;2.97;;
75035;SDS011;64247;51.540;5.854;2023-05-29T00:48:13;11.43;;;2.60;;
75035;SDS011;64247;51.540;5.854;2023-05-29T00:50:14;4.30;;;1.83;;
75035;SDS011;64247;51.540;5.854;2023-05-29T00:52:15;16.45;;;3.67;;
75035;SDS011;64247;51.540;5.854;2023-05-29T00:54:17;8.13;;;2.50;;
75035;SDS011;64247;51.540;5.854;2023-05-29T00:56:21;8.10;;;2.35;;
75035;SDS011;64247;51.540;5.854;2023-05-29T00:58:22;7.50;;;2.50;;
75035;SDS011;64247;51.540;5.854;2023-05-29T01:00:23;8.48;;;2.50;;
75035;SDS011;64247;51.540;5.854;2023-05-29T01:02:24;10.20;;;2.53;;
75035;SDS011;64247;51.540;5.854;2023-05-29T01:04:26;9.35;;;2.85;;
75035;SDS011;64247;51.540;5.854;2023-05-29T01:06:27;7.57;;;1.98;;
75035;SDS011;64247;51.540;5.854;2023-05-29T01:08:28;10.20;;;2.35;;
75035;SDS011;64247;51.540;5.854;2023-05-29T01:10:29;11.38;;;3.00;;
75035;SDS011;64247;51.540;5.854;2023-05-29T01:12:33;8.65;;;2.90;;
75035;SDS011;64247;51.540;5.854;2023-05-29T01:17:28;11.07;;;2.80;;
75035;SDS011;64247;51.540;5.854;2023-05-29T01:25:17;5.60;;;2.15;;
75035;SDS011;64247;51.540;5.854;2023-05-29T01:27:22;11.25;;;2.63;;
75035;SDS011;64247;51.540;5.854;2023-05-29T01:29:26;6.88;;;2.40;;
75035;SDS011;64247;51.540;5.854;2023-05-29T01:31:33;10.27;;;2.17;;
75035;SDS011;64247;51.540;5.854;2023-05-29T01:33:39;9.13;;;2.72;;
75035;SDS011;64247;51.540;5.854;2023-05-29T01:35:40;7.97;;;2.30;;
75035;SDS011;64247;51.540;5.854;2023-05-29T01:37:41;15.68;;;2.30;;
75035;SDS011;64247;51.540;5.854;2023-05-29T01:39:42;12.05;;;1.88;;
75035;SDS011;64247;51.540;5.854;2023-05-29T01:41:43;12.10;;;2.17;;
75035;SDS011;64247;51.540;5.854;2023-05-29T01:43:46;6.22;;;2.22;;
75035;SDS011;64247;51.540;5.854;2023-05-29T01:45:47;10.57;;;2.40;;
75035;SDS011;64247;51.540;5.854;2023-05-29T01:47:48;6.97;;;2.00;;
75035;SDS011;64247;51.540;5.854;2023-05-29T01:49:52;15.80;;;3.22;;
75035;SDS011;64247;51.540;5.854;2023-05-29T01:51:52;9.77;;;1.75;;
75035;SDS011;64247;51.540;5.854;2023-05-29T01:53:53;7.50;;;1.55;;
75035;SDS011;64247;51.540;5.854;2023-05-29T01:55:54;8.25;;;2.13;;
75035;SDS011;64247;51.540;5.854;2023-05-29T01:57:55;8.90;;;2.65;;
75035;SDS011;64247;51.540;5.854;2023-05-29T01:59:57;7.53;;;2.35;;
75035;SDS011;64247;51.540;5.854;2023-05-29T02:01:57;6.50;;;2.38;;
75035;SDS011;64247;51.540;5.854;2023-05-29T02:06:05;6.85;;;1.70;;
75035;SDS011;64247;51.540;5.854;2023-05-29T02:08:07;6.20;;;1.75;;
75035;SDS011;64247;51.540;5.854;2023-05-29T02:10:07;10.93;;;3.00;;
75035;SDS011;64247;51.540;5.854;2023-05-29T02:12:09;10.93;;;2.25;;
75035;SDS011;64247;51.540;5.854;2023-05-29T02:14:09;9.07;;;2.17;;
75035;SDS011;64247;51.540;5.854;2023-05-29T02:16:11;7.68;;;2.20;;
75035;SDS011;64247;51.540;5.854;2023-05-29T02:18:13;10.82;;;1.98;;
75035;SDS011;64247;51.540;5.854;2023-05-29T02:20:15;9.20;;;1.95;;
75035;SDS011;64247;51.540;5.854;2023-05-29T02:22:18;7.38;;;2.08;;
75035;SDS011;64247;51.540;5.854;2023-05-29T02:24:18;13.00;;;3.40;;
75035;SDS011;64247;51.540;5.854;2023-05-29T02:26:19;7.10;;;2.00;;
75035;SDS011;64247;51.540;5.854;2023-05-29T02:28:21;14.38;;;1.98;;
75035;SDS011;64247;51.540;5.854;2023-05-29T02:30:21;8.63;;;2.33;;
75035;SDS011;64247;51.540;5.854;2023-05-29T02:32:22;7.32;;;2.40;;
75035;SDS011;64247;51.540;5.854;2023-05-29T02:34:23;9.30;;;1.80;;
75035;SDS011;64247;51.540;5.854;2023-05-29T02:36:24;14.30;;;2.47;;
75035;SDS011;64247;51.540;5.854;2023-05-29T02:38:25;13.10;;;2.17;;
75035;SDS011;64247;51.540;5.854;2023-05-29T02:40:26;8.90;;;1.88;;
75035;SDS011;64247;51.540;5.854;2023-05-29T02:42:27;9.00;;;2.45;;
75035;SDS011;64247;51.540;5.854;2023-05-29T02:44:28;9.02;;;2.58;;
75035;SDS011;64247;51.540;5.854;2023-05-29T02:46:29;6.75;;;1.52;;
75035;SDS011;64247;51.540;5.854;2023-05-29T02:48:29;10.63;;;1.80;;
75035;SDS011;64247;51.540;5.854;2023-05-29T02:50:30;9.40;;;2.17;;
75035;SDS011;64247;51.540;5.854;2023-05-29T02:52:34;11.90;;;3.05;;
75035;SDS011;64247;51.540;5.854;2023-05-29T02:54:36;10.15;;;2.38;;
75035;SDS011;64247;51.540;5.854;2023-05-29T02:56:38;10.88;;;1.80;;
75035;SDS011;64247;51.540;5.854;2023-05-29T02:58:38;6.70;;;2.05;;
75035;SDS011;64247;51.540;5.854;2023-05-29T03:00:39;8.63;;;1.80;;
75035;SDS011;64247;51.540;5.854;2023-05-29T03:02:40;10.23;;;2.60;;
75035;SDS011;64247;51.540;5.854;2023-05-29T03:04:41;8.32;;;2.10;;
75035;SDS011;64247;51.540;5.854;2023-05-29T03:06:41;7.93;;;2.53;;
75035;SDS011;64247;51.540;5.854;2023-05-29T03:08:42;12.40;;;1.92;;
75035;SDS011;64247;51.540;5.854;2023-05-29T03:10:45;10.07;;;2.30;;
75035;SDS011;64247;51.540;5.854;2023-05-29T03:12:48;13.10;;;2.25;;
75035;SDS011;64247;51.540;5.854;2023-05-29T03:14:50;8.82;;;1.98;;
75035;SDS011;64247;51.540;5.854;2023-05-29T03:16:51;10.02;;;2.67;;
75035;SDS011;64247;51.540;5.854;2023-05-29T03:18:51;9.93;;;1.90;;
75035;SDS011;64247;51.540;5.854;2023-05-29T03:20:54;10.63;;;2.22;;
75035;SDS011;64247;51.540;5.854;2023-05-29T03:22:55;21.52;;;2.63;;
75035;SDS011;64247;51.540;5.854;2023-05-29T03:24:56;15.48;;;2.65;;
75035;SDS011;64247;51.540;5.854;2023-05-29T03:26:57;11.50;;;1.95;;
75035;SDS011;64247;51.540;5.854;2023-05-29T03:28:58;11.57;;;2.45;;
75035;SDS011;64247;51.540;5.854;2023-05-29T03:30:59;9.90;;;2.85;;
75035;SDS011;64247;51.540;5.854;2023-05-29T03:33:00;12.02;;;2.20;;
75035;SDS011;64247;51.540;5.854;2023-05-29T03:35:18;10.35;;;2.30;;
75035;SDS011;64247;51.540;5.854;2023-05-29T03:37:19;12.07;;;2.70;;
75035;SDS011;64247;51.540;5.854;2023-05-29T03:39:21;11.45;;;3.20;;
75035;SDS011;64247;51.540;5.854;2023-05-29T03:41:22;7.88;;;1.85;;
75035;SDS011;64247;51.540;5.854;2023-05-29T03:43:25;5.85;;;1.90;;
75035;SDS011;64247;51.540;5.854;2023-05-29T03:45:26;9.13;;;2.70;;
75035;SDS011;64247;51.540;5.854;2023-05-29T03:47:27;13.82;;;1.88;;
75035;SDS011;64247;51.540;5.854;2023-05-29T03:49:28;9.00;;;2.10;;
75035;SDS011;64247;51.540;5.854;2023-05-29T03:51:29;12.60;;;2.00;;
75035;SDS011;64247;51.540;5.854;2023-05-29T03:53:31;7.10;;;2.00;;
75035;SDS011;64247;51.540;5.854;2023-05-29T03:55:32;9.13;;;2.55;;
75035;SDS011;64247;51.540;5.854;2023-05-29T03:57:33;13.23;;;2.38;;
75035;SDS011;64247;51.540;5.854;2023-05-29T03:59:35;8.10;;;2.20;;
75035;SDS011;64247;51.540;5.854;2023-05-29T04:01:35;9.45;;;2.47;;
75035;SDS011;64247;51.540;5.854;2023-05-29T04:03:36;12.52;;;2.17;;
75035;SDS011;64247;51.540;5.854;2023-05-29T04:05:38;10.00;;;2.00;;
75035;SDS011;64247;51.540;5.854;2023-05-29T04:07:39;9.32;;;2.78;;
75035;SDS011;64247;51.540;5.854;2023-05-29T04:09:40;9.38;;;2.63;;
75035;SDS011;64247;51.540;5.854;2023-05-29T04:11:41;12.20;;;2.22;;
75035;SDS011;64247;51.540;5.854;2023-05-29T04:13:42;15.60;;;2.60;;
75035;SDS011;64247;51.540;5.854;2023-05-29T04:15:44;5.75;;;2.30;;
75035;SDS011;64247;51.540;5.854;2023-05-29T04:17:44;13.00;;;2.33;;
75035;SDS011;64247;51.540;5.854;2023-05-29T04:19:46;9.77;;;1.55;;
75035;SDS011;64247;51.540;5.854;2023-05-29T04:21:47;7.97;;;2.10;;
75035;SDS011;64247;51.540;5.854;2023-05-29T04:23:47;14.65;;;2.40;;
75035;SDS011;64247;51.540;5.854;2023-05-29T04:25:49;15.25;;;2.60;;
75035;SDS011;64247;51.540;5.854;2023-05-29T04:27:57;7.97;;;2.22;;
75035;SDS011;64247;51.540;5.854;2023-05-29T04:30:01;18.00;;;2.45;;
75035;SDS011;64247;51.540;5.854;2023-05-29T04:32:11;12.40;;;2.80;;
75035;SDS011;64247;51.540;5.854;2023-05-29T04:34:13;10.13;;;1.98;;
75035;SDS011;64247;51.540;5.854;2023-05-29T04:36:17;9.02;;;2.33;;
75035;SDS011;64247;51.540;5.854;2023-05-29T04:38:20;8.55;;;1.90;;
75035;SDS011;64247;51.540;5.854;2023-05-29T04:40:26;13.73;;;2.25;;
75035;SDS011;64247;51.540;5.854;2023-05-29T04:42:27;14.77;;;2.80;;
75035;SDS011;64247;51.540;5.854;2023-05-29T04:44:29;11.10;;;2.38;;
75035;SDS011;64247;51.540;5.854;2023-05-29T04:46:30;11.00;;;2.45;;
75035;SDS011;64247;51.540;5.854;2023-05-29T04:48:31;9.82;;;2.30;;
75035;SDS011;64247;51.540;5.854;2023-05-29T04:50:32;12.88;;;2.67;;
75035;SDS011;64247;51.540;5.854;2023-05-29T04:52:34;7.20;;;2.35;;
75035;SDS011;64247;51.540;5.854;2023-05-29T04:54:38;7.82;;;2.25;;
75035;SDS011;64247;51.540;5.854;2023-05-29T04:56:38;7.40;;;2.10;;
75035;SDS011;64247;51.540;5.854;2023-05-29T04:58:45;15.60;;;3.13;;
75035;SDS011;64247;51.540;5.854;2023-05-29T05:00:47;11.00;;;1.80;;
75035;SDS011;64247;51.540;5.854;2023-05-29T05:02:49;14.45;;;2.40;;
75035;SDS011;64247;51.540;5.854;2023-05-29T05:04:51;15.82;;;3.85;;
75035;SDS011;64247;51.540;5.854;2023-05-29T05:06:52;11.18;;;2.28;;
75035;SDS011;64247;51.540;5.854;2023-05-29T05:08:53;8.10;;;1.95;;
75035;SDS011;64247;51.540;5.854;2023-05-29T05:10:54;12.98;;;2.40;;
75035;SDS011;64247;51.540;5.854;2023-05-29T05:12:55;12.10;;;1.90;;
75035;SDS011;64247;51.540;5.854;2023-05-29T05:14:57;23.67;;;3.28;;
75035;SDS011;64247;51.540;5.854;2023-05-29T05:16:58;22.33;;;1.98;;
75035;SDS011;64247;51.540;5.854;2023-05-29T05:18:59;17.75;;;3.63;;
75035;SDS011;64247;51.540;5.854;2023-05-29T05:21:00;14.38;;;2.45;;
75035;SDS011;64247;51.540;5.854;2023-05-29T05:23:03;9.10;;;2.58;;
75035;SDS011;64247;51.540;5.854;2023-05-29T05:25:04;21.83;;;3.00;;
75035;SDS011;64247;51.540;5.854;2023-05-29T05:27:05;14.25;;;3.28;;
75035;SDS011;64247;51.540;5.854;2023-05-29T05:29:06;11.18;;;2.20;;
75035;SDS011;64247;51.540;5.854;2023-05-29T05:31:08;10.73;;;2.53;;
75035;SDS011;64247;51.540;5.854;2023-05-29T05:33:10;11.52;;;2.10;;
75035;SDS011;64247;51.540;5.854;2023-05-29T05:35:12;15.13;;;3.70;;
75035;SDS011;64247;51.540;5.854;2023-05-29T05:37:13;18.10;;;3.03;;
75035;SDS011;64247;51.540;5.854;2023-05-29T05:39:15;12.82;;;2.53;;
75035;SDS011;64247;51.540;5.854;2023-05-29T05:41:20;13.85;;;3.17;;
75035;SDS011;64247;51.540;5.854;2023-05-29T05:43:21;10.85;;;2.15;;
75035;SDS011;64247;51.540;5.854;2023-05-29T05:45:41;14.40;;;2.10;;
75035;SDS011;64247;51.540;5.854;2023-05-29T05:47:43;12.13;;;2.00;;
75035;SDS011;64247;51.540;5.854;2023-05-29T05:49:44;7.28;;;2.55;;
75035;SDS011;64247;51.540;5.854;2023-05-29T05:51:46;11.70;;;2.97;;
75035;SDS011;64247;51.540;5.854;2023-05-29T05:53:47;12.15;;;2.03;;
75035;SDS011;64247;51.540;5.854;2023-05-29T05:55:48;10.45;;;2.15;;
75035;SDS011;64247;51.540;5.854;2023-05-29T05:57:49;11.07;;;2.78;;
75035;SDS011;64247;51.540;5.854;2023-05-29T05:59:50;9.93;;;2.42;;
75035;SDS011;64247;51.540;5.854;2023-05-29T06:01:50;8.57;;;2.20;;
75035;SDS011;64247;51.540;5.854;2023-05-29T06:03:52;14.15;;;1.95;;
75035;SDS011;64247;51.540;5.854;2023-05-29T06:05:52;9.80;;;1.90;;
75035;SDS011;64247;51.540;5.854;2023-05-29T06:07:54;10.38;;;1.90;;
75035;SDS011;64247;51.540;5.854;2023-05-29T06:09:55;10.95;;;1.92;;
75035;SDS011;64247;51.540;5.854;2023-05-29T06:11:56;19.10;;;2.10;;
75035;SDS011;64247;51.540;5.854;2023-05-29T06:13:57;4.55;;;2.25;;
75035;SDS011;64247;51.540;5.854;2023-05-29T06:16:02;8.27;;;2.67;;
75035;SDS011;64247;51.540;5.854;2023-05-29T06:18:04;14.90;;;3.25;;
75035;SDS011;64247;51.540;5.854;2023-05-29T06:20:05;13.65;;;2.53;;
75035;SDS011;64247;51.540;5.854;2023-05-29T06:22:11;11.02;;;2.45;;
75035;SDS011;64247;51.540;5.854;2023-05-29T06:24:12;10.45;;;2.28;;
75035;SDS011;64247;51.540;5.854;2023-05-29T06:26:13;10.25;;;2.20;;
75035;SDS011;64247;51.540;5.854;2023-05-29T06:28:16;8.93;;;2.20;;
75035;SDS011;64247;51.540;5.854;2023-05-29T06:30:17;7.97;;;2.20;;
75035;SDS011;64247;51.540;5.854;2023-05-29T06:32:17;8.77;;;1.88;;
75035;SDS011;64247;51.540;5.854;2023-05-29T06:34:18;15.45;;;2.10;;
75035;SDS011;64247;51.540;5.854;2023-05-29T06:36:19;6.28;;;2.00;;
75035;SDS011;64247;51.540;5.854;2023-05-29T06:38:20;10.75;;;2.58;;
75035;SDS011;64247;51.540;5.854;2023-05-29T06:40:21;10.80;;;1.83;;
75035;SDS011;64247;51.540;5.854;2023-05-29T06:42:23;12.60;;;2.22;;
75035;SDS011;64247;51.540;5.854;2023-05-29T06:44:31;7.40;;;2.00;;
75035;SDS011;64247;51.540;5.854;2023-05-29T06:46:32;9.20;;;1.98;;
75035;SDS011;64247;51.540;5.854;2023-05-29T06:48:34;12.20;;;1.63;;
75035;SDS011;64247;51.540;5.854;2023-05-29T06:50:35;7.25;;;1.92;;
75035;SDS011;64247;51.540;5.854;2023-05-29T06:52:56;15.35;;;2.63;;
75035;SDS011;64247;51.540;5.854;2023-05-29T06:55:02;10.00;;;2.60;;
75035;SDS011;64247;51.540;5.854;2023-05-29T06:57:03;7.07;;;1.40;;
75035;SDS011;64247;51.540;5.854;2023-05-29T06:59:04;13.07;;;3.05;;
75035;SDS011;64247;51.540;5.854;2023-05-29T07:01:05;17.70;;;2.85;;
75035;SDS011;64247;51.540;5.854;2023-05-29T07:03:07;10.52;;;1.90;;
75035;SDS011;64247;51.540;5.854;2023-05-29T07:05:08;11.00;;;2.15;;
75035;SDS011;64247;51.540;5.854;2023-05-29T07:07:11;11.85;;;1.67;;
75035;SDS011;64247;51.540;5.854;2023-05-29T07:09:11;9.40;;;2.38;;
75035;SDS011;64247;51.540;5.854;2023-05-29T07:11:12;8.00;;;1.80;;
75035;SDS011;64247;51.540;5.854;2023-05-29T07:13:14;9.55;;;2.05;;
75035;SDS011;64247;51.540;5.854;2023-05-29T07:15:17;11.38;;;3.38;;
75035;SDS011;64247;51.540;5.854;2023-05-29T07:17:19;9.98;;;1.90;;
75035;SDS011;64247;51.540;5.854;2023-05-29T07:19:23;3.92;;;1.70;;
75035;SDS011;64247;51.540;5.854;2023-05-29T07:21:24;15.98;;;2.22;;
75035;SDS011;64247;51.540;5.854;2023-05-29T07:23:26;8.50;;;1.95;;
75035;SDS011;64247;51.540;5.854;2023-05-29T07:25:27;6.43;;;1.80;;
75035;SDS011;64247;51.540;5.854;2023-05-29T07:27:28;12.02;;;2.35;;
75035;SDS011;64247;51.540;5.854;2023-05-29T07:29:29;7.93;;;2.00;;
75035;SDS011;64247;51.540;5.854;2023-05-29T07:31:30;7.10;;;1.52;;
75035;SDS011;64247;51.540;5.854;2023-05-29T07:33:31;9.43;;;1.58;;
75035;SDS011;64247;51.540;5.854;2023-05-29T07:35:32;5.68;;;2.08;;
75035;SDS011;64247;51.540;5.854;2023-05-29T07:37:34;4.95;;;1.92;;
75035;SDS011;64247;51.540;5.854;2023-05-29T07:39:36;6.72;;;2.15;;
75035;SDS011;64247;51.540;5.854;2023-05-29T07:41:46;9.15;;;1.90;;
75035;SDS011;64247;51.540;5.854;2023-05-29T07:43:46;6.32;;;1.83;;
75035;SDS011;64247;51.540;5.854;2023-05-29T07:45:53;4.95;;;1.48;;
75035;SDS011;64247;51.540;5.854;2023-05-29T07:47:54;8.00;;;1.50;;
75035;SDS011;64247;51.540;5.854;2023-05-29T07:49:56;12.75;;;2.25;;
75035;SDS011;64247;51.540;5.854;2023-05-29T07:51:59;7.82;;;1.42;;
75035;SDS011;64247;51.540;5.854;2023-05-29T07:54:00;11.07;;;1.58;;
75035;SDS011;64247;51.540;5.854;2023-05-29T07:56:01;7.85;;;1.73;;
75035;SDS011;64247;51.540;5.854;2023-05-29T07:58:02;7.13;;;1.60;;
75035;SDS011;64247;51.540;5.854;2023-05-29T08:00:03;6.18;;;1.80;;
75035;SDS011;64247;51.540;5.854;2023-05-29T08:02:28;12.23;;;2.05;;
75035;SDS011;64247;51.540;5.854;2023-05-29T08:04:48;8.73;;;1.80;;
75035;SDS011;64247;51.540;5.854;2023-05-29T08:06:49;4.80;;;2.08;;
75035;SDS011;64247;51.540;5.854;2023-05-29T08:08:51;3.72;;;1.20;;
75035;SDS011;64247;51.540;5.854;2023-05-29T08:10:52;5.32;;;1.60;;
75035;SDS011;64247;51.540;5.854;2023-05-29T08:12:54;5.30;;;1.60;;
75035;SDS011;64247;51.540;5.854;2023-05-29T08:14:54;7.97;;;1.80;;
75035;SDS011;64247;51.540;5.854;2023-05-29T08:16:55;10.02;;;1.90;;
75035;SDS011;64247;51.540;5.854;2023-05-29T08:18:56;6.55;;;1.20;;
75035;SDS011;64247;51.540;5.854;2023-05-29T08:20:57;4.65;;;1.50;;
75035;SDS011;64247;51.540;5.854;2023-05-29T08:22:57;8.70;;;1.90;;
75035;SDS011;64247;51.540;5.854;2023-05-29T08:24:58;8.38;;;2.15;;
75035;SDS011;64247;51.540;5.854;2023-05-29T08:26:59;7.90;;;1.85;;
75035;SDS011;64247;51.540;5.854;2023-05-29T08:29:00;10.27;;;2.20;;
75035;SDS011;64247;51.540;5.854;2023-05-29T08:31:01;7.10;;;1.85;;
75035;SDS011;64247;51.540;5.854;2023-05-29T08:33:02;8.68;;;1.70;;
75035;SDS011;64247;51.540;5.854;2023-05-29T08:35:03;9.68;;;2.80;;
75035;SDS011;64247;51.540;5.854;2023-05-29T08:37:04;6.38;;;1.67;;
75035;SDS011;64247;51.540;5.854;2023-05-29T08:39:05;7.32;;;1.80;;
75035;SDS011;64247;51.540;5.854;2023-05-29T08:41:06;5.63;;;1.77;;
75035;SDS011;64247;51.540;5.854;2023-05-29T08:45:30;4.50;;;1.70;;
75035;SDS011;64247;51.540;5.854;2023-05-29T08:47:34;7.32;;;1.55;;
75035;SDS011;64247;51.540;5.854;2023-05-29T08:49:41;10.18;;;2.17;;
75035;SDS011;64247;51.540;5.854;2023-05-29T08:51:45;8.90;;;1.77;;
75035;SDS011;64247;51.540;5.854;2023-05-29T08:53:50;6.43;;;2.00;;
75035;SDS011;64247;51.540;5.854;2023-05-29T08:55:52;7.13;;;2.65;;
75035;SDS011;64247;51.540;5.854;2023-05-29T08:57:53;6.20;;;1.50;;
75035;SDS011;64247;51.540;5.854;2023-05-29T08:59:56;4.95;;;1.67;;
75035;SDS011;64247;51.540;5.854;2023-05-29T09:01:57;6.68;;;1.98;;
75035;SDS011;64247;51.540;5.854;2023-05-29T09:03:58;7.00;;;1.70;;
75035;SDS011;64247;51.540;5.854;2023-05-29T09:06:00;8.85;;;2.15;;
75035;SDS011;64247;51.540;5.854;2023-05-29T09:08:03;10.02;;;2.53;;
75035;SDS011;64247;51.540;5.854;2023-05-29T09:10:08;5.28;;;1.70;;
75035;SDS011;64247;51.540;5.854;2023-05-29T09:12:10;7.05;;;1.73;;
75035;SDS011;64247;51.540;5.854;2023-05-29T09:14:11;8.85;;;1.95;;
75035;SDS011;64247;51.540;5.854;2023-05-29T09:16:38;8.80;;;1.73;;
75035;SDS011;64247;51.540;5.854;2023-05-29T09:18:42;5.28;;;1.70;;
75035;SDS011;64247;51.540;5.854;2023-05-29T09:20:46;8.10;;;1.80;;
75035;SDS011;64247;51.540;5.854;2023-05-29T09:25:13;9.70;;;3.45;;
75035;SDS011;64247;51.540;5.854;2023-05-29T09:27:14;7.10;;;2.10;;
75035;SDS011;64247;51.540;5.854;2023-05-29T09:29:15;11.95;;;2.45;;
75035;SDS011;64247;51.540;5.854;2023-05-29T09:31:16;7.00;;;2.08;;
75035;SDS011;64247;51.540;5.854;2023-05-29T09:33:17;5.05;;;1.52;;
75035;SDS011;64247;51.540;5.854;2023-05-29T09:35:19;8.70;;;2.05;;
75035;SDS011;64247;51.540;5.854;2023-05-29T09:37:19;6.55;;;1.55;;
75035;SDS011;64247;51.540;5.854;2023-05-29T09:39:22;7.72;;;1.73;;
75035;SDS011;64247;51.540;5.854;2023-05-29T09:41:23;7.07;;;1.77;;
75035;SDS011;64247;51.540;5.854;2023-05-29T09:43:24;8.70;;;2.40;;
75035;SDS011;64247;51.540;5.854;2023-05-29T09:45:25;7.72;;;2.47;;
75035;SDS011;64247;51.540;5.854;2023-05-29T09:47:26;9.05;;;2.47;;
75035;SDS011;64247;51.540;5.854;2023-05-29T09:49:33;6.25;;;2.42;;
75035;SDS011;64247;51.540;5.854;2023-05-29T09:51:34;4.35;;;1.58;;
75035;SDS011;64247;51.540;5.854;2023-05-29T09:53:35;4.55;;;1.70;;
75035;SDS011;64247;51.540;5.854;2023-05-29T09:55:43;8.88;;;1.60;;
75035;SDS011;64247;51.540;5.854;2023-05-29T09:57:45;9.63;;;2.45;;
75035;SDS011;64247;51.540;5.854;2023-05-29T09:59:48;10.68;;;2.42;;
75035;SDS011;64247;51.540;5.854;2023-05-29T10:02:01;6.70;;;2.00;;
75035;SDS011;64247;51.540;5.854;2023-05-29T10:04:04;6.80;;;1.65;;
75035;SDS011;64247;51.540;5.854;2023-05-29T10:06:04;6.05;;;1.92;;
75035;SDS011;64247;51.540;5.854;2023-05-29T10:08:11;7.20;;;2.30;;
75035;SDS011;64247;51.540;5.854;2023-05-29T10:10:13;7.72;;;2.25;;
75035;SDS011;64247;51.540;5.854;2023-05-29T10:12:14;6.88;;;1.88;;
75035;SDS011;64247;51.540;5.854;2023-05-29T10:14:20;6.80;;;1.50;;
75035;SDS011;64247;51.540;5.854;2023-05-29T10:16:25;6.25;;;1.75;;
75035;SDS011;64247;51.540;5.854;2023-05-29T10:18:30;6.28;;;2.10;;
75035;SDS011;64247;51.540;5.854;2023-05-29T10:20:35;13.05;;;2.05;;
75035;SDS011;64247;51.540;5.854;2023-05-29T10:22:39;7.35;;;1.83;;
75035;SDS011;64247;51.540;5.854;2023-05-29T10:24:45;15.30;;;2.10;;
75035;SDS011;64247;51.540;5.854;2023-05-29T10:26:49;8.68;;;2.00;;
75035;SDS011;64247;51.540;5.854;2023-05-29T10:31:33;8.05;;;1.95;;
75035;SDS011;64247;51.540;5.854;2023-05-29T10:36:35;7.55;;;1.50;;
75035;SDS011;64247;51.540;5.854;2023-05-29T10:38:46;7.38;;;2.30;;
75035;SDS011;64247;51.540;5.854;2023-05-29T10:40:47;4.82;;;1.70;;
75035;SDS011;64247;51.540;5.854;2023-05-29T10:42:49;6.18;;;1.73;;
75035;SDS011;64247;51.540;5.854;2023-05-29T10:44:53;10.05;;;2.42;;
75035;SDS011;64247;51.540;5.854;2023-05-29T10:49:24;7.00;;;1.50;;
75035;SDS011;64247;51.540;5.854;2023-05-29T10:51:25;6.93;;;2.15;;
75035;SDS011;64247;51.540;5.854;2023-05-29T10:53:30;4.38;;;1.95;;
75035;SDS011;64247;51.540;5.854;2023-05-29T10:55:35;7.28;;;2.05;;
75035;SDS011;64247;51.540;5.854;2023-05-29T10:57:46;7.88;;;2.40;;
75035;SDS011;64247;51.540;5.854;2023-05-29T10:59:48;6.53;;;1.58;;
75035;SDS011;64247;51.540;5.854;2023-05-29T11:01:58;10.00;;;1.92;;
75035;SDS011;64247;51.540;5.854;2023-05-29T11:06:41;7.03;;;2.08;;
75035;SDS011;64247;51.540;5.854;2023-05-29T11:11:08;8.70;;;1.70;;
75035;SDS011;64247;51.540;5.854;2023-05-29T11:15:36;8.18;;;1.50;;
75035;SDS011;64247;51.540;5.854;2023-05-29T11:22:46;6.88;;;2.60;;
75035;SDS011;64247;51.540;5.854;2023-05-29T11:24:57;7.07;;;2.85;;
75035;SDS011;64247;51.540;5.854;2023-05-29T11:27:03;4.95;;;1.70;;
75035;SDS011;64247;51.540;5.854;2023-05-29T11:29:06;6.55;;;1.67;;
75035;SDS011;64247;51.540;5.854;2023-05-29T11:31:10;5.50;;;1.77;;
75035;SDS011;64247;51.540;5.854;2023-05-29T11:33:23;5.35;;;1.90;;
75035;SDS011;64247;51.540;5.854;2023-05-29T11:35:25;10.20;;;2.17;;
75035;SDS011;64247;51.540;5.854;2023-05-29T11:37:27;5.32;;;1.98;;
75035;SDS011;64247;51.540;5.854;2023-05-29T11:39:28;9.15;;;1.88;;
75035;SDS011;64247;51.540;5.854;2023-05-29T11:41:31;7.30;;;1.65;;
75035;SDS011;64247;51.540;5.854;2023-05-29T11:43:32;6.68;;;1.70;;
75035;SDS011;64247;51.540;5.854;2023-05-29T11:45:33;4.18;;;2.22;;
75035;SDS011;64247;51.540;5.854;2023-05-29T11:47:49;5.55;;;1.67;;
75035;SDS011;64247;51.540;5.854;2023-05-29T11:50:23;3.38;;;1.88;;
75035;SDS011;64247;51.540;5.854;2023-05-29T11:52:28;7.00;;;1.90;;
75035;SDS011;64247;51.540;5.854;2023-05-29T11:54:28;8.73;;;2.00;;
75035;SDS011;64247;51.540;5.854;2023-05-29T11:56:29;7.57;;;1.92;;
75035;SDS011;64247;51.540;5.854;2023-05-29T11:58:30;7.53;;;1.38;;
75035;SDS011;64247;51.540;5.854;2023-05-29T12:00:32;4.68;;;1.35;;
75035;SDS011;64247;51.540;5.854;2023-05-29T12:02:35;8.07;;;2.75;;
75035;SDS011;64247;51.540;5.854;2023-05-29T12:04:36;6.43;;;2.28;;
75035;SDS011;64247;51.540;5.854;2023-05-29T12:06:37;5.93;;;1.38;;
75035;SDS011;64247;51.540;5.854;2023-05-29T12:08:38;3.25;;;1.77;;
75035;SDS011;64247;51.540;5.854;2023-05-29T12:12:59;5.03;;;1.30;;
75035;SDS011;64247;51.540;5.854;2023-05-29T12:15:03;5.63;;;1.83;;
75035;SDS011;64247;51.540;5.854;2023-05-29T12:17:07;5.57;;;1.60;;
75035;SDS011;64247;51.540;5.854;2023-05-29T12:19:09;10.35;;;1.60;;
75035;SDS011;64247;51.540;5.854;2023-05-29T12:21:09;6.75;;;2.25;;
75035;SDS011;64247;51.540;5.854;2023-05-29T12:23:11;5.22;;;2.17;;
75035;SDS011;64247;51.540;5.854;2023-05-29T12:25:15;5.18;;;1.30;;
75035;SDS011;64247;51.540;5.854;2023-05-29T12:27:17;4.53;;;1.63;;
75035;SDS011;64247;51.540;5.854;2023-05-29T12:29:18;4.88;;;1.77;;
75035;SDS011;64247;51.540;5.854;2023-05-29T12:33:42;6.75;;;1.63;;
75035;SDS011;64247;51.540;5.854;2023-05-29T12:35:45;5.75;;;1.98;;
75035;SDS011;64247;51.540;5.854;2023-05-29T12:42:29;4.63;;;2.13;;
75035;SDS011;64247;51.540;5.854;2023-05-29T12:44:29;5.45;;;1.70;;
75035;SDS011;64247;51.540;5.854;2023-05-29T12:48:56;11.05;;;1.77;;
75035;SDS011;64247;51.540;5.854;2023-05-29T12:50:57;9.65;;;2.13;;
75035;SDS011;64247;51.540;5.854;2023-05-29T12:53:02;7.20;;;2.40;;
75035;SDS011;64247;51.540;5.854;2023-05-29T12:55:09;8.75;;;1.80;;
75035;SDS011;64247;51.540;5.854;2023-05-29T12:57:09;8.02;;;2.72;;
75035;SDS011;64247;51.540;5.854;2023-05-29T12:59:11;8.57;;;2.22;;
75035;SDS011;64247;51.540;5.854;2023-05-29T13:01:12;5.72;;;1.60;;
75035;SDS011;64247;51.540;5.854;2023-05-29T13:03:16;3.75;;;1.73;;